sensor_id;sensor_type;location;lat;lon;timestamp;pressure;altitude;pressure_sealevel;temperature;humidity
20019;BME280;10170;42.502;26.526;2023-01-25T00:00:03;101308.38;;;2.09;100.00
20019;BME280;10170;42.502;26.526;2023-01-25T00:02:30;101318.00;;;2.08;100.00
20019;BME280;10170;42.502;26.526;2023-01-25T00:04:57;101313.63;;;2.09;100.00
20019;BME280;10170;42.502;26.526;2023-01-25T00:07:23;101316.56;;;2.04;100.00
20019;BME280;10170;42.502;26.526;2023-01-25T00:09:50;101299.19;;;1.91;100.00
20019;BME280;10170;42.502;26.526;2023-01-25T00:12:17;101308.84;;;1.90;100.00
20019;BME280;10170;42.502;26.526;2023-01-25T00:14:44;101315.78;;;1.91;100.00
20019;BME280;10170;42.502;26.526;2023-01-25T00:17:11;101316.59;;;1.92;100.00
20019;BME280;10170;42.502;26.526;2023-01-25T00:19:37;101316.56;;;1.81;100.00
20019;BME280;10170;42.502;26.526;2023-01-25T00:22:04;101321.44;;;1.85;100.00
20019;BME280;10170;42.502;26.526;2023-01-25T00:24:31;101306.38;;;1.76;100.00
20019;BME280;10170;42.502;26.526;2023-01-25T00:26:57;101316.13;;;1.74;100.00
20019;BME280;10170;42.502;26.526;2023-01-25T00:29:24;101310.34;;;1.82;100.00
20019;BME280;10170;42.502;26.526;2023-01-25T00:37:10;101309.84;;;1.77;100.00
20019;BME280;10170;42.502;26.526;2023-01-25T00:39:37;101304.59;;;1.77;100.00
20019;BME280;10170;42.502;26.526;2023-01-25T00:42:07;101285.31;;;1.65;100.00
20019;BME280;10170;42.502;26.526;2023-01-25T00:44:36;101300.91;;;1.79;100.00
20019;BME280;10170;42.502;26.526;2023-01-25T00:47:03;101302.28;;;1.72;100.00
20019;BME280;10170;42.502;26.526;2023-01-25T00:49:31;101293.19;;;1.65;100.00
20019;BME280;10170;42.502;26.526;2023-01-25T00:51:58;101294.03;;;1.66;100.00
20019;BME280;10170;42.502;26.526;2023-01-25T00:54:25;101293.38;;;1.75;100.00
20019;BME280;10170;42.502;26.526;2023-01-25T00:56:52;101295.06;;;1.63;100.00
20019;BME280;10170;42.502;26.526;2023-01-25T00:59:21;101296.31;;;1.70;100.00
20019;BME280;10170;42.502;26.526;2023-01-25T01:01:48;101294.66;;;1.69;100.00
20019;BME280;10170;42.502;26.526;2023-01-25T01:04:15;101287.91;;;1.78;100.00
20019;BME280;10170;42.502;26.526;2023-01-25T01:06:42;101281.69;;;1.55;100.00
20019;BME280;10170;42.502;26.526;2023-01-25T01:09:14;101289.75;;;1.65;100.00
20019;BME280;10170;42.502;26.526;2023-01-25T01:11:41;101288.59;;;1.56;100.00
20019;BME280;10170;42.502;26.526;2023-01-25T01:14:08;101283.03;;;1.61;100.00
20019;BME280;10170;42.502;26.526;2023-01-25T01:16:35;101287.41;;;1.73;100.00
20019;BME280;10170;42.502;26.526;2023-01-25T01:19:03;101273.06;;;1.66;100.00
20019;BME280;10170;42.502;26.526;2023-01-25T01:21:30;101280.81;;;1.67;100.00
20019;BME280;10170;42.502;26.526;2023-01-25T01:23:57;101278.91;;;1.69;100.00
20019;BME280;10170;42.502;26.526;2023-01-25T01:26:24;101288.38;;;1.72;100.00
20019;BME280;10170;42.502;26.526;2023-01-25T01:28:51;101266.66;;;1.70;100.00
20019;BME280;10170;42.502;26.526;2023-01-25T01:31:20;101276.72;;;1.63;100.00
20019;BME280;10170;42.502;26.526;2023-01-25T01:33:48;101273.06;;;1.66;100.00
20019;BME280;10170;42.502;26.526;2023-01-25T01:36:16;101273.28;;;1.63;100.00
20019;BME280;10170;42.502;26.526;2023-01-25T01:38:44;101278.00;;;1.58;100.00
20019;BME280;10170;42.502;26.526;2023-01-25T01:41:11;101268.97;;;1.62;100.00
20019;BME280;10170;42.502;26.526;2023-01-25T01:43:38;101269.94;;;1.61;100.00
20019;BME280;10170;42.502;26.526;2023-01-25T01:46:34;101270.81;;;1.72;100.00
20019;BME280;10170;42.502;26.526;2023-01-25T01:54:42;101247.00;;;1.52;100.00
20019;BME280;10170;42.502;26.526;2023-01-25T01:57:24;101265.72;;;1.58;100.00
20019;BME280;10170;42.502;26.526;2023-01-25T01:59:57;101269.03;;;1.73;100.00
20019;BME280;10170;42.502;26.526;2023-01-25T02:02:26;101266.19;;;1.76;100.00
20019;BME280;10170;42.502;26.526;2023-01-25T02:04:56;101257.59;;;1.50;100.00
20019;BME280;10170;42.502;26.526;2023-01-25T02:07:31;101271.28;;;1.66;100.00
20019;BME280;10170;42.502;26.526;2023-01-25T02:10:03;101270.03;;;1.59;100.00
20019;BME280;10170;42.502;26.526;2023-01-25T02:12:31;101269.44;;;1.56;100.00
20019;BME280;10170;42.502;26.526;2023-01-25T02:14:57;101273.59;;;1.58;100.00
20019;BME280;10170;42.502;26.526;2023-01-25T02:17:27;101272.28;;;1.76;100.00
20019;BME280;10170;42.502;26.526;2023-01-25T02:22:27;101273.94;;;1.54;100.00
20019;BME280;10170;42.502;26.526;2023-01-25T02:25:10;101276.63;;;1.65;100.00
20019;BME280;10170;42.502;26.526;2023-01-25T02:27:49;101271.63;;;1.49;100.00
20019;BME280;10170;42.502;26.526;2023-01-25T02:30:17;101270.81;;;1.49;100.00
20019;BME280;10170;42.502;26.526;2023-01-25T02:32:44;101252.50;;;1.36;100.00
20019;BME280;10170;42.502;26.526;2023-01-25T02:35:22;101263.03;;;1.47;100.00
20019;BME280;10170;42.502;26.526;2023-01-25T02:37:50;101261.78;;;1.40;100.00
20019;BME280;10170;42.502;26.526;2023-01-25T02:40:17;101248.69;;;1.40;100.00
20019;BME280;10170;42.502;26.526;2023-01-25T02:42:44;101252.13;;;1.53;100.00
20019;BME280;10170;42.502;26.526;2023-01-25T02:45:14;101262.09;;;1.48;100.00
20019;BME280;10170;42.502;26.526;2023-01-25T02:47:42;101265.66;;;1.47;100.00
20019;BME280;10170;42.502;26.526;2023-01-25T02:50:09;101271.34;;;1.41;100.00
20019;BME280;10170;42.502;26.526;2023-01-25T02:52:36;101262.53;;;1.42;100.00
20019;BME280;10170;42.502;26.526;2023-01-25T02:55:03;101279.09;;;1.30;100.00
20019;BME280;10170;42.502;26.526;2023-01-25T02:57:30;101271.25;;;1.30;100.00
20019;BME280;10170;42.502;26.526;2023-01-25T02:59:56;101276.59;;;1.41;100.00
20019;BME280;10170;42.502;26.526;2023-01-25T03:02:23;101277.00;;;1.35;100.00
20019;BME280;10170;42.502;26.526;2023-01-25T03:04:50;101280.25;;;1.26;100.00
20019;BME280;10170;42.502;26.526;2023-01-25T03:07:16;101276.16;;;1.22;100.00
20019;BME280;10170;42.502;26.526;2023-01-25T03:09:43;101277.75;;;1.25;100.00
20019;BME280;10170;42.502;26.526;2023-01-25T03:12:10;101276.91;;;1.24;100.00
20019;BME280;10170;42.502;26.526;2023-01-25T03:14:37;101207.41;;;0.82;100.00
20019;BME280;10170;42.502;26.526;2023-01-25T03:17:03;101276.28;;;1.21;100.00
20019;BME280;10170;42.502;26.526;2023-01-25T03:19:30;101279.63;;;1.23;100.00
20019;BME280;10170;42.502;26.526;2023-01-25T03:21:57;101276.09;;;1.24;100.00
20019;BME280;10170;42.502;26.526;2023-01-25T03:24:24;101273.25;;;1.27;100.00
20019;BME280;10170;42.502;26.526;2023-01-25T03:26:51;101283.38;;;1.31;100.00
20019;BME280;10170;42.502;26.526;2023-01-25T03:29:36;101275.13;;;1.25;100.00
20019;BME280;10170;42.502;26.526;2023-01-25T03:32:03;101277.53;;;1.28;100.00
20019;BME280;10170;42.502;26.526;2023-01-25T03:34:30;101284.88;;;1.23;100.00
20019;BME280;10170;42.502;26.526;2023-01-25T03:36:57;101286.34;;;1.14;100.00
20019;BME280;10170;42.502;26.526;2023-01-25T03:39:24;101270.63;;;1.14;100.00
20019;BME280;10170;42.502;26.526;2023-01-25T03:41:51;101276.09;;;1.24;100.00
20019;BME280;10170;42.502;26.526;2023-01-25T03:44:17;101270.41;;;1.17;100.00
20019;BME280;10170;42.502;26.526;2023-01-25T03:46:44;101277.53;;;1.15;100.00
20019;BME280;10170;42.502;26.526;2023-01-25T03:49:11;101282.03;;;1.26;100.00
20019;BME280;10170;42.502;26.526;2023-01-25T03:51:38;101269.69;;;1.15;100.00
20019;BME280;10170;42.502;26.526;2023-01-25T03:54:05;101268.31;;;1.22;100.00
20019;BME280;10170;42.502;26.526;2023-01-25T03:56:33;101272.75;;;1.09;100.00
20019;BME280;10170;42.502;26.526;2023-01-25T03:59:00;101272.94;;;1.06;100.00
20019;BME280;10170;42.502;26.526;2023-01-25T04:01:27;101270.84;;;1.11;100.00
20019;BME280;10170;42.502;26.526;2023-01-25T04:03:54;101265.06;;;1.06;100.00
20019;BME280;10170;42.502;26.526;2023-01-25T04:06:20;101265.63;;;1.11;100.00
20019;BME280;10170;42.502;26.526;2023-01-25T04:08:47;101270.22;;;1.08;100.00
20019;BME280;10170;42.502;26.526;2023-01-25T04:11:14;101272.19;;;1.04;100.00
20019;BME280;10170;42.502;26.526;2023-01-25T04:13:41;101270.22;;;1.20;100.00
20019;BME280;10170;42.502;26.526;2023-01-25T04:16:09;101265.63;;;1.11;100.00
20019;BME280;10170;42.502;26.526;2023-01-25T04:18:39;101268.31;;;1.09;100.00
20019;BME280;10170;42.502;26.526;2023-01-25T04:21:06;101278.16;;;1.06;100.00
20019;BME280;10170;42.502;26.526;2023-01-25T04:23:33;101279.22;;;1.03;100.00
20019;BME280;10170;42.502;26.526;2023-01-25T04:26:01;101275.13;;;1.12;100.00
20019;BME280;10170;42.502;26.526;2023-01-25T04:28:31;101276.09;;;1.11;100.00
20019;BME280;10170;42.502;26.526;2023-01-25T04:30:59;101249.34;;;1.06;100.00
20019;BME280;10170;42.502;26.526;2023-01-25T04:33:26;101270.63;;;1.14;100.00
20019;BME280;10170;42.502;26.526;2023-01-25T04:35:53;101278.72;;;1.11;100.00
20019;BME280;10170;42.502;26.526;2023-01-25T04:38:20;101278.16;;;1.06;100.00
20019;BME280;10170;42.502;26.526;2023-01-25T04:40:46;101271.28;;;1.05;100.00
20019;BME280;10170;42.502;26.526;2023-01-25T04:43:14;101280.59;;;1.09;100.00
20019;BME280;10170;42.502;26.526;2023-01-25T04:45:41;101270.94;;;1.09;100.00
20019;BME280;10170;42.502;26.526;2023-01-25T04:48:10;101269.91;;;1.12;100.00
20019;BME280;10170;42.502;26.526;2023-01-25T04:50:38;101265.91;;;1.19;100.00
20019;BME280;10170;42.502;26.526;2023-01-25T04:53:06;101265.06;;;1.19;100.00
20019;BME280;10170;42.502;26.526;2023-01-25T04:55:34;101261.91;;;1.26;100.00
20019;BME280;10170;42.502;26.526;2023-01-25T04:58:01;101268.63;;;1.18;100.00
20019;BME280;10170;42.502;26.526;2023-01-25T05:00:29;101265.50;;;1.25;100.00
20019;BME280;10170;42.502;26.526;2023-01-25T05:02:56;101259.81;;;1.31;100.00
20019;BME280;10170;42.502;26.526;2023-01-25T05:05:23;101263.38;;;1.30;100.00
20019;BME280;10170;42.502;26.526;2023-01-25T05:07:50;101248.28;;;1.34;100.00
20019;BME280;10170;42.502;26.526;2023-01-25T05:10:16;101264.75;;;1.36;100.00
20019;BME280;10170;42.502;26.526;2023-01-25T05:12:43;101266.50;;;1.48;100.00
20019;BME280;10170;42.502;26.526;2023-01-25T05:15:10;101274.22;;;1.62;100.00
20019;BME280;10170;42.502;26.526;2023-01-25T05:17:37;101257.91;;;1.46;100.00
20019;BME280;10170;42.502;26.526;2023-01-25T05:20:04;101268.25;;;1.47;100.00
20019;BME280;10170;42.502;26.526;2023-01-25T05:22:31;101264.28;;;1.42;100.00
20019;BME280;10170;42.502;26.526;2023-01-25T05:24:58;101268.72;;;1.41;100.00
20019;BME280;10170;42.502;26.526;2023-01-25T05:27:25;101270.09;;;1.34;100.00
20019;BME280;10170;42.502;26.526;2023-01-25T05:29:51;101264.84;;;1.34;100.00
20019;BME280;10170;42.502;26.526;2023-01-25T05:32:20;101266.41;;;1.24;100.00
20019;BME280;10170;42.502;26.526;2023-01-25T05:34:48;101261.06;;;1.38;100.00
20019;BME280;10170;42.502;26.526;2023-01-25T05:37:17;101262.97;;;1.36;100.00
20019;BME280;10170;42.502;26.526;2023-01-25T05:39:44;101258.25;;;1.29;100.00
20019;BME280;10170;42.502;26.526;2023-01-25T05:42:13;101271.72;;;1.48;100.00
20019;BME280;10170;42.502;26.526;2023-01-25T05:44:40;101255.94;;;1.37;100.00
20019;BME280;10170;42.502;26.526;2023-01-25T05:47:15;101258.00;;;1.44;100.00
20019;BME280;10170;42.502;26.526;2023-01-25T05:49:42;101259.91;;;1.30;100.00
20019;BME280;10170;42.502;26.526;2023-01-25T05:52:18;101269.13;;;1.35;100.00
20019;BME280;10170;42.502;26.526;2023-01-25T05:54:44;101264.28;;;1.42;100.00
20019;BME280;10170;42.502;26.526;2023-01-25T05:57:13;101275.94;;;1.50;100.00
20019;BME280;10170;42.502;26.526;2023-01-25T05:59:40;101274.03;;;1.52;100.00
20019;BME280;10170;42.502;26.526;2023-01-25T06:02:07;101271.84;;;1.46;100.00
20019;BME280;10170;42.502;26.526;2023-01-25T06:04:33;101266.09;;;1.41;100.00
20019;BME280;10170;42.502;26.526;2023-01-25T06:07:00;101266.84;;;1.43;100.00
20019;BME280;10170;42.502;26.526;2023-01-25T06:09:27;101268.41;;;1.33;100.00
20019;BME280;10170;42.502;26.526;2023-01-25T06:11:53;101262.38;;;1.56;100.00
20019;BME280;10170;42.502;26.526;2023-01-25T06:14:20;101263.72;;;1.62;100.00
20019;BME280;10170;42.502;26.526;2023-01-25T06:16:48;101275.72;;;1.53;100.00
20019;BME280;10170;42.502;26.526;2023-01-25T06:19:15;101280.31;;;1.62;100.00
20019;BME280;10170;42.502;26.526;2023-01-25T06:21:42;101277.38;;;1.54;100.00
20019;BME280;10170;42.502;26.526;2023-01-25T06:24:08;101269.38;;;1.32;100.00
20019;BME280;10170;42.502;26.526;2023-01-25T06:26:35;101287.91;;;1.29;100.00
20019;BME280;10170;42.502;26.526;2023-01-25T06:29:04;101291.97;;;1.33;100.00
20019;BME280;10170;42.502;26.526;2023-01-25T06:31:32;101269.56;;;1.29;100.00
20019;BME280;10170;42.502;26.526;2023-01-25T06:33:59;101299.03;;;1.33;100.00
20019;BME280;10170;42.502;26.526;2023-01-25T06:36:29;101295.03;;;1.40;100.00
20019;BME280;10170;42.502;26.526;2023-01-25T06:38:56;101301.09;;;1.40;100.00
20019;BME280;10170;42.502;26.526;2023-01-25T06:41:23;101293.78;;;1.33;100.00
20019;BME280;10170;42.502;26.526;2023-01-25T06:43:50;101307.19;;;1.41;100.00
20019;BME280;10170;42.502;26.526;2023-01-25T06:46:18;101294.69;;;1.44;100.00
20019;BME280;10170;42.502;26.526;2023-01-25T06:48:45;101301.72;;;1.31;100.00
20019;BME280;10170;42.502;26.526;2023-01-25T06:51:13;101291.78;;;1.36;100.00
20019;BME280;10170;42.502;26.526;2023-01-25T06:53:42;101288.44;;;1.34;100.00
20019;BME280;10170;42.502;26.526;2023-01-25T06:56:12;101278.88;;;1.33;100.00
20019;BME280;10170;42.502;26.526;2023-01-25T06:58:39;101301.31;;;1.37;100.00
20019;BME280;10170;42.502;26.526;2023-01-25T07:01:14;101294.59;;;1.46;100.00
20019;BME280;10170;42.502;26.526;2023-01-25T07:03:41;101305.72;;;1.24;100.00
20019;BME280;10170;42.502;26.526;2023-01-25T07:06:09;101310.97;;;1.12;100.00
20019;BME280;10170;42.502;26.526;2023-01-25T07:08:36;101308.56;;;1.08;100.00
20019;BME280;10170;42.502;26.526;2023-01-25T07:11:05;101305.81;;;1.10;100.00
20019;BME280;10170;42.502;26.526;2023-01-25T07:13:32;101304.16;;;1.09;100.00
20019;BME280;10170;42.502;26.526;2023-01-25T07:16:05;101308.78;;;1.05;100.00
20019;BME280;10170;42.502;26.526;2023-01-25T07:18:33;101311.47;;;1.17;100.00
20019;BME280;10170;42.502;26.526;2023-01-25T07:21:04;101314.75;;;1.20;100.00
20019;BME280;10170;42.502;26.526;2023-01-25T07:23:32;101288.97;;;1.01;100.00
20019;BME280;10170;42.502;26.526;2023-01-25T07:26:00;101284.88;;;0.97;100.00
20019;BME280;10170;42.502;26.526;2023-01-25T07:28:27;101307.94;;;1.18;100.00
20019;BME280;10170;42.502;26.526;2023-01-25T07:30:54;101288.88;;;1.16;100.00
20019;BME280;10170;42.502;26.526;2023-01-25T07:33:20;101292.63;;;1.24;100.00
20019;BME280;10170;42.502;26.526;2023-01-25T07:35:47;101297.13;;;1.22;100.00
20019;BME280;10170;42.502;26.526;2023-01-25T07:38:16;101281.00;;;1.16;100.00
20019;BME280;10170;42.502;26.526;2023-01-25T07:40:43;101289.81;;;1.27;100.00
20019;BME280;10170;42.502;26.526;2023-01-25T07:43:16;101293.06;;;1.31;100.00
20019;BME280;10170;42.502;26.526;2023-01-25T07:45:43;101306.44;;;1.39;100.00
20019;BME280;10170;42.502;26.526;2023-01-25T07:48:15;101312.53;;;1.39;100.00
20019;BME280;10170;42.502;26.526;2023-01-25T07:50:43;101301.72;;;1.44;100.00
20019;BME280;10170;42.502;26.526;2023-01-25T07:53:32;101300.66;;;1.46;100.00
20019;BME280;10170;42.502;26.526;2023-01-25T07:55:59;101299.38;;;1.64;100.00
20019;BME280;10170;42.502;26.526;2023-01-25T07:58:25;101294.81;;;1.43;100.00
20019;BME280;10170;42.502;26.526;2023-01-25T08:00:52;101299.91;;;1.57;100.00
20019;BME280;10170;42.502;26.526;2023-01-25T08:03:19;101300.97;;;1.54;100.00
20019;BME280;10170;42.502;26.526;2023-01-25T08:05:47;101298.66;;;1.62;100.00
20019;BME280;10170;42.502;26.526;2023-01-25T08:08:14;101303.03;;;1.62;100.00
20019;BME280;10170;42.502;26.526;2023-01-25T08:10:41;101296.03;;;1.62;100.00
20019;BME280;10170;42.502;26.526;2023-01-25T08:13:07;101303.97;;;1.73;100.00
20019;BME280;10170;42.502;26.526;2023-01-25T08:15:34;101309.53;;;1.69;100.00
20019;BME280;10170;42.502;26.526;2023-01-25T08:18:01;101308.50;;;1.71;100.00
20019;BME280;10170;42.502;26.526;2023-01-25T08:20:27;101310.97;;;1.85;100.00
20019;BME280;10170;42.502;26.526;2023-01-25T08:22:54;101313.19;;;1.79;100.00
20019;BME280;10170;42.502;26.526;2023-01-25T08:25:21;101302.09;;;1.75;100.00
20019;BME280;10170;42.502;26.526;2023-01-25T08:27:48;101307.59;;;1.83;100.00
20019;BME280;10170;42.502;26.526;2023-01-25T08:30:15;101308.22;;;1.87;100.00
20019;BME280;10170;42.502;26.526;2023-01-25T08:32:41;101290.31;;;2.04;100.00
20019;BME280;10170;42.502;26.526;2023-01-25T08:35:08;101296.53;;;2.03;100.00
20019;BME280;10170;42.502;26.526;2023-01-25T08:37:36;101291.66;;;2.10;100.00
20019;BME280;10170;42.502;26.526;2023-01-25T08:40:03;101286.34;;;2.11;100.00
20019;BME280;10170;42.502;26.526;2023-01-25T08:42:29;101277.50;;;2.12;100.00
20019;BME280;10170;42.502;26.526;2023-01-25T08:44:56;101277.25;;;2.15;100.00
20019;BME280;10170;42.502;26.526;2023-01-25T08:47:23;101281.16;;;2.34;100.00
20019;BME280;10170;42.502;26.526;2023-01-25T08:49:49;101278.28;;;2.26;100.00
20019;BME280;10170;42.502;26.526;2023-01-25T08:52:17;101280.91;;;2.26;100.00
20019;BME280;10170;42.502;26.526;2023-01-25T08:54:47;101277.31;;;2.27;100.00
20019;BME280;10170;42.502;26.526;2023-01-25T08:57:13;101274.38;;;2.31;100.00
20019;BME280;10170;42.502;26.526;2023-01-25T08:59:40;101270.41;;;2.26;100.00
20019;BME280;10170;42.502;26.526;2023-01-25T09:02:10;101270.78;;;2.32;100.00
20019;BME280;10170;42.502;26.526;2023-01-25T09:04:37;101272.44;;;2.33;100.00
20019;BME280;10170;42.502;26.526;2023-01-25T09:07:04;101285.19;;;2.27;100.00
20019;BME280;10170;42.502;26.526;2023-01-25T09:09:31;101280.19;;;2.24;100.00
20019;BME280;10170;42.502;26.526;2023-01-25T09:11:58;101279.44;;;2.22;100.00
20019;BME280;10170;42.502;26.526;2023-01-25T09:14:25;101272.50;;;2.09;100.00
20019;BME280;10170;42.502;26.526;2023-01-25T09:16:51;101268.78;;;2.12;100.00
20019;BME280;10170;42.502;26.526;2023-01-25T09:19:18;101270.13;;;2.17;100.00
20019;BME280;10170;42.502;26.526;2023-01-25T09:21:45;101271.56;;;2.45;100.00
20019;BME280;10170;42.502;26.526;2023-01-25T09:24:13;101270.59;;;2.46;100.00
20019;BME280;10170;42.502;26.526;2023-01-25T09:26:41;101267.03;;;2.58;100.00
20019;BME280;10170;42.502;26.526;2023-01-25T09:29:15;101262.41;;;2.51;100.00
20019;BME280;10170;42.502;26.526;2023-01-25T09:31:41;101262.41;;;2.51;100.00
20019;BME280;10170;42.502;26.526;2023-01-25T09:34:13;101258.56;;;2.44;100.00
20019;BME280;10170;42.502;26.526;2023-01-25T09:36:40;101256.38;;;2.38;100.00
20019;BME280;10170;42.502;26.526;2023-01-25T09:39:09;101256.00;;;2.31;100.00
20019;BME280;10170;42.502;26.526;2023-01-25T09:46:50;101232.75;;;2.38;100.00
20019;BME280;10170;42.502;26.526;2023-01-25T09:52:25;101231.38;;;2.56;100.00
20019;BME280;10170;42.502;26.526;2023-01-25T09:54:56;101220.28;;;2.52;100.00
20019;BME280;10170;42.502;26.526;2023-01-25T09:57:36;101204.88;;;2.59;100.00
20019;BME280;10170;42.502;26.526;2023-01-25T10:00:12;101219.69;;;2.71;100.00
20019;BME280;10170;42.502;26.526;2023-01-25T10:05:29;101212.72;;;2.48;100.00
20019;BME280;10170;42.502;26.526;2023-01-25T10:10:31;101195.97;;;2.27;100.00
20019;BME280;10170;42.502;26.526;2023-01-25T10:12:59;101191.09;;;2.22;100.00
20019;BME280;10170;42.502;26.526;2023-01-25T10:15:31;101196.47;;;2.32;100.00
20019;BME280;10170;42.502;26.526;2023-01-25T10:18:05;101189.78;;;2.28;100.00
20019;BME280;10170;42.502;26.526;2023-01-25T10:20:57;101176.56;;;2.29;100.00
20019;BME280;10170;42.502;26.526;2023-01-25T10:29:00;101156.28;;;2.42;100.00
20019;BME280;10170;42.502;26.526;2023-01-25T10:31:36;101152.44;;;2.35;100.00
20019;BME280;10170;42.502;26.526;2023-01-25T10:34:19;101148.75;;;2.27;100.00
20019;BME280;10170;42.502;26.526;2023-01-25T10:36:49;101150.91;;;2.33;100.00
20019;BME280;10170;42.502;26.526;2023-01-25T10:39:19;101150.53;;;2.15;100.00
20019;BME280;10170;42.502;26.526;2023-01-25T10:41:56;101131.03;;;2.06;100.00
20019;BME280;10170;42.502;26.526;2023-01-25T10:44:25;101125.19;;;2.03;100.00
20019;BME280;10170;42.502;26.526;2023-01-25T10:47:00;101130.31;;;2.04;100.00
20019;BME280;10170;42.502;26.526;2023-01-25T10:49:41;101117.19;;;2.04;100.00
20019;BME280;10170;42.502;26.526;2023-01-25T10:54:46;101115.09;;;2.21;100.00
20019;BME280;10170;42.502;26.526;2023-01-25T10:57:18;101113.88;;;2.13;100.00
20019;BME280;10170;42.502;26.526;2023-01-25T10:59:49;101106.03;;;2.25;100.00
20019;BME280;10170;42.502;26.526;2023-01-25T11:05:31;101091.97;;;2.14;100.00
20019;BME280;10170;42.502;26.526;2023-01-25T11:10:41;101089.59;;;2.11;100.00
20019;BME280;10170;42.502;26.526;2023-01-25T11:15:44;101083.13;;;2.15;100.00
20019;BME280;10170;42.502;26.526;2023-01-25T11:18:17;101086.75;;;2.26;100.00
20019;BME280;10170;42.502;26.526;2023-01-25T11:20:44;101072.16;;;2.22;100.00
20019;BME280;10170;42.502;26.526;2023-01-25T11:23:23;101075.97;;;2.17;100.00
20019;BME280;10170;42.502;26.526;2023-01-25T11:25:51;101073.94;;;2.10;100.00
20019;BME280;10170;42.502;26.526;2023-01-25T11:28:23;101063.13;;;2.26;100.00
20019;BME280;10170;42.502;26.526;2023-01-25T11:30:51;101066.44;;;2.17;100.00
20019;BME280;10170;42.502;26.526;2023-01-25T11:33:20;101074.44;;;2.15;100.00
20019;BME280;10170;42.502;26.526;2023-01-25T11:38:36;101057.84;;;2.37;100.00
20019;BME280;10170;42.502;26.526;2023-01-25T11:41:28;101065.00;;;2.46;100.00
20019;BME280;10170;42.502;26.526;2023-01-25T11:49:50;101054.50;;;2.46;100.00
20019;BME280;10170;42.502;26.526;2023-01-25T11:52:27;101043.19;;;2.34;100.00
20019;BME280;10170;42.502;26.526;2023-01-25T11:55:21;101052.72;;;2.46;100.00
20019;BME280;10170;42.502;26.526;2023-01-25T12:01:09;101050.22;;;2.34;100.00
20019;BME280;10170;42.502;26.526;2023-01-25T12:03:45;101048.44;;;2.45;100.00
20019;BME280;10170;42.502;26.526;2023-01-25T12:06:42;101048.19;;;2.59;100.00
20019;BME280;10170;42.502;26.526;2023-01-25T12:09:40;101044.59;;;2.49;100.00
20019;BME280;10170;42.502;26.526;2023-01-25T12:12:23;101042.22;;;2.46;100.00
20019;BME280;10170;42.502;26.526;2023-01-25T12:17:51;101055.94;;;2.61;100.00
20019;BME280;10170;42.502;26.526;2023-01-25T12:26:00;101052.13;;;2.65;100.00
20019;BME280;10170;42.502;26.526;2023-01-25T12:28:49;101041.38;;;2.68;100.00
20019;BME280;10170;42.502;26.526;2023-01-25T12:31:49;101032.66;;;2.67;100.00
20019;BME280;10170;42.502;26.526;2023-01-25T12:34:22;101034.94;;;2.72;100.00
20019;BME280;10170;42.502;26.526;2023-01-25T12:36:52;101007.13;;;2.58;100.00
20019;BME280;10170;42.502;26.526;2023-01-25T12:39:25;101035.66;;;2.85;100.00
20019;BME280;10170;42.502;26.526;2023-01-25T12:41:57;101035.78;;;2.72;100.00
20019;BME280;10170;42.502;26.526;2023-01-25T12:44:51;101025.03;;;2.64;100.00
20019;BME280;10170;42.502;26.526;2023-01-25T12:47:27;101023.72;;;2.81;100.00
20019;BME280;10170;42.502;26.526;2023-01-25T12:50:03;101015.59;;;2.73;100.00
20019;BME280;10170;42.502;26.526;2023-01-25T12:52:49;101015.00;;;2.80;100.00
20019;BME280;10170;42.502;26.526;2023-01-25T12:55:18;101010.13;;;2.65;100.00
20019;BME280;10170;42.502;26.526;2023-01-25T12:58:06;101008.81;;;2.59;100.00
20019;BME280;10170;42.502;26.526;2023-01-25T13:06:41;101017.34;;;2.83;100.00
20019;BME280;10170;42.502;26.526;2023-01-25T13:12:18;101004.19;;;2.94;100.00
20019;BME280;10170;42.502;26.526;2023-01-25T13:14:46;100990.50;;;2.80;100.00
20019;BME280;10170;42.502;26.526;2023-01-25T13:17:30;100988.25;;;2.86;100.00
20019;BME280;10170;42.502;26.526;2023-01-25T13:23:34;100983.78;;;2.98;100.00
20019;BME280;10170;42.502;26.526;2023-01-25T13:26:37;100971.88;;;2.94;100.00
20019;BME280;10170;42.502;26.526;2023-01-25T13:31:58;100963.28;;;2.92;100.00
20019;BME280;10170;42.502;26.526;2023-01-25T13:37:21;100970.75;;;2.96;100.00
20019;BME280;10170;42.502;26.526;2023-01-25T13:42:22;100957.78;;;2.84;100.00
20019;BME280;10170;42.502;26.526;2023-01-25T13:44:53;100952.44;;;2.74;100.00
20019;BME280;10170;42.502;26.526;2023-01-25T13:47:38;100949.00;;;2.74;100.00
20019;BME280;10170;42.502;26.526;2023-01-25T13:50:19;100959.31;;;2.97;100.00
20019;BME280;10170;42.502;26.526;2023-01-25T13:53:02;100957.44;;;2.88;100.00
20019;BME280;10170;42.502;26.526;2023-01-25T13:55:38;100947.56;;;2.81;100.00
20019;BME280;10170;42.502;26.526;2023-01-25T13:58:32;100948.75;;;2.77;100.00
20019;BME280;10170;42.502;26.526;2023-01-25T14:01:12;100941.53;;;2.90;100.00
20019;BME280;10170;42.502;26.526;2023-01-25T14:03:42;100940.75;;;2.78;100.00
20019;BME280;10170;42.502;26.526;2023-01-25T14:06:16;100931.25;;;2.66;100.00
20019;BME280;10170;42.502;26.526;2023-01-25T14:08:45;100944.66;;;2.84;100.00
20019;BME280;10170;42.502;26.526;2023-01-25T14:11:50;100946.03;;;2.67;100.00
20019;BME280;10170;42.502;26.526;2023-01-25T14:14:29;100946.72;;;2.69;100.00
20019;BME280;10170;42.502;26.526;2023-01-25T14:17:16;100939.22;;;2.76;100.00
20019;BME280;10170;42.502;26.526;2023-01-25T14:19:46;100945.41;;;2.75;100.00